Time;durP1;ratioP1;P1;durP2;ratioP2;P2;SDS_P1;SDS_P2;PMS_P1;PMS_P2;Temp;Humidity;BMP_temperature;BMP_pressure;BME280_temperature;BME280_humidity;BME280_pressure;Samples;Min_cycle;Max_cycle;Signal;HPM_P1;HPM_P2
2021/01/17 05:23:34;;;;;;;13.07;10.30;;;0.40;98.70;;;;;;5646429;23;20621;-76
2021/01/17 05:26:03;;;;;;;12.45;10.30;;;0.40;98.80;;;;;;4986755;28;20686;-74
2021/01/17 05:28:31;;;;;;;12.70;10.07;;;0.40;98.80;;;;;;4994501;28;20193;-75
2021/01/17 05:30:57;;;;;;;12.13;10.15;;;0.40;98.90;;;;;;4994608;28;20208;-74
2021/01/17 05:33:28;;;;;;;14.45;11.35;;;0.50;99.20;;;;;;4995256;28;20264;-74
2021/01/17 05:35:55;;;;;;;14.00;10.00;;;0.40;98.90;;;;;;4995425;28;20162;-74
2021/01/17 05:38:21;;;;;;;12.52;10.02;;;0.40;98.80;;;;;;4995008;28;20198;-74
2021/01/17 05:40:46;;;;;;;11.85;10.18;;;0.40;98.70;;;;;;4994216;28;20170;-75
2021/01/17 05:43:12;;;;;;;13.00;10.27;;;0.40;98.80;;;;;;4995608;28;20555;-74
2021/01/17 05:45:38;;;;;;;12.23;10.60;;;0.40;98.70;;;;;;4993644;28;20570;-75
2021/01/17 05:48:11;;;;;;;12.00;10.02;;;0.40;98.60;;;;;;4995388;28;20272;-75
2021/01/17 05:50:43;;;;;;;13.00;10.65;;;0.40;98.40;;;;;;4994096;28;20707;-75
2021/01/17 05:53:09;;;;;;;14.00;11.23;;;0.40;98.30;;;;;;4994867;28;20201;-74
2021/01/17 05:55:43;;;;;;;14.65;11.45;;;0.40;98.30;;;;;;4993841;28;20651;-74
2021/01/17 05:58:31;;;;;;;13.93;10.07;;;0.30;98.10;;;;;;4994355;28;20240;-74
2021/01/17 06:01:14;;;;;;;14.40;11.18;;;0.30;97.90;;;;;;4977422;28;20617;-73
2021/01/17 06:03:51;;;;;;;14.48;11.00;;;0.30;97.90;;;;;;4988917;28;20198;-74
2021/01/17 06:06:30;;;;;;;14.43;11.18;;;0.20;97.90;;;;;;4973717;28;20178;-73
2021/01/17 06:08:57;;;;;;;12.75;10.10;;;0.20;97.90;;;;;;4975069;28;20238;-74
2021/01/17 06:11:24;;;;;;;12.98;10.48;;;0.20;97.90;;;;;;4975372;28;20216;-73
2021/01/17 06:13:58;;;;;;;14.32;11.48;;;0.20;97.90;;;;;;4974187;28;20198;-73
2021/01/17 06:16:40;;;;;;;12.45;9.98;;;0.20;97.90;;;;;;4974069;28;20175;-73
2021/01/17 06:19:07;;;;;;;13.75;10.48;;;0.10;98.40;;;;;;4974058;28;20246;-73
2021/01/17 06:21:34;;;;;;;16.50;11.02;;;0.10;98.40;;;;;;4974954;28;20201;-73
2021/01/17 06:24:05;;;;;;;15.55;12.00;;;0.10;97.90;;;;;;4973559;28;20230;-73
2021/01/17 06:26:40;;;;;;;13.90;11.10;;;0.10;98.10;;;;;;4975068;28;20166;-74
2021/01/17 06:29:09;;;;;;;14.07;11.18;;;0.10;98.00;;;;;;4975356;28;20714;-74
2021/01/17 06:31:35;;;;;;;15.15;11.60;;;0.10;97.80;;;;;;4973564;28;20222;-73
2021/01/17 06:34:09;;;;;;;13.48;11.07;;;0.00;98.00;;;;;;4975172;28;20226;-73
2021/01/17 06:36:39;;;;;;;14.18;11.50;;;0.00;97.90;;;;;;4974987;28;20166;-74
2021/01/17 06:39:17;;;;;;;15.00;11.07;;;0.00;97.80;;;;;;4974094;28;20182;-73
2021/01/17 06:41:43;;;;;;;15.55;12.60;;;0.00;97.70;;;;;;4975124;28;20166;-74
2021/01/17 06:44:11;;;;;;;15.68;11.30;;;0.00;97.70;;;;;;4974298;28;20221;-73
2021/01/17 06:46:43;;;;;;;14.43;10.70;;;0.00;97.70;;;;;;4973508;28;20182;-74
2021/01/17 06:49:26;;;;;;;14.63;11.52;;;0.00;97.30;;;;;;4973276;28;20198;-73
2021/01/17 06:51:54;;;;;;;14.35;11.20;;;0.00;97.30;;;;;;4973576;28;20190;-73
2021/01/17 06:54:21;;;;;;;14.88;11.63;;;-0.10;97.40;;;;;;4973007;28;20218;-74
2021/01/17 06:56:51;;;;;;;15.55;11.40;;;-0.10;97.60;;;;;;4974469;28;20722;-74
2021/01/17 06:59:49;;;;;;;14.15;10.68;;;-0.20;98.10;;;;;;4974737;28;20285;-73
2021/01/17 07:02:35;;;;;;;12.70;10.88;;;-0.20;98.30;;;;;;4914788;29;20746;-73
2021/01/17 07:05:17;;;;;;;14.77;11.63;;;-0.20;98.40;;;;;;4914781;29;20552;-73
2021/01/17 07:08:03;;;;;;;13.90;12.02;;;-0.20;98.30;;;;;;4914871;29;20184;-73
2021/01/17 07:10:40;;;;;;;14.70;12.25;;;-0.20;98.30;;;;;;4914716;29;20212;-73
2021/01/17 07:13:07;;;;;;;13.18;10.77;;;-0.30;98.40;;;;;;4914629;29;20679;-73
2021/01/17 07:15:38;;;;;;;15.02;11.75;;;-0.30;98.60;;;;;;4914209;29;20180;-73
2021/01/17 07:18:05;;;;;;;16.20;11.38;;;-0.40;99.00;;;;;;4914398;29;20289;-73
2021/01/17 07:20:39;;;;;;;15.73;13.02;;;-0.40;99.30;;;;;;4914501;29;20180;-74
2021/01/17 07:23:07;;;;;;;15.13;11.48;;;-0.30;99.40;;;;;;4913953;29;20251;-73
2021/01/17 07:25:36;;;;;;;13.73;11.50;;;-0.30;99.40;;;;;;4914448;29;20244;-73
2021/01/17 07:28:15;;;;;;;14.55;11.05;;;-0.30;99.80;;;;;;4914529;29;20200;-74
2021/01/17 07:30:48;;;;;;;14.27;10.88;;;-0.30;99.50;;;;;;4914210;29;20224;-73
2021/01/17 07:33:16;;;;;;;15.32;11.48;;;-0.20;99.60;;;;;;4914211;29;20228;-73
2021/01/17 07:35:46;;;;;;;15.57;11.80;;;-0.20;99.50;;;;;;4914333;29;20213;-73
2021/01/17 07:38:19;;;;;;;14.90;11.63;;;-0.20;99.20;;;;;;4961814;28;20206;-75
2021/01/17 07:41:09;;;;;;;14.18;11.77;;;-0.10;99.40;;;;;;4973703;28;20261;-76
2021/01/17 07:43:38;;;;;;;12.32;10.93;;;-0.10;99.10;;;;;;4966393;28;20246;-75
2021/01/17 07:46:13;;;;;;;15.85;11.60;;;-0.10;99.00;;;;;;4973754;28;20170;-75
2021/01/17 07:48:40;;;;;;;14.85;12.15;;;-0.10;99.00;;;;;;4973823;28;20197;-75
2021/01/17 07:51:10;;;;;;;15.23;11.85;;;-0.10;98.90;;;;;;4972247;28;20244;-75
2021/01/17 07:53:39;;;;;;;15.15;11.85;;;-0.10;99.00;;;;;;4973282;28;20190;-76
2021/01/17 07:56:24;;;;;;;15.45;11.93;;;-0.10;99.00;;;;;;4973528;28;20171;-75
2021/01/17 07:58:51;;;;;;;16.00;12.80;;;-0.10;98.90;;;;;;4973553;28;20251;-76
2021/01/17 08:01:35;;;;;;;16.90;12.20;;;-0.10;98.80;;;;;;4973960;28;20183;-76
2021/01/17 08:04:11;;;;;;;18.60;13.07;;;-0.10;98.20;;;;;;4973639;28;20510;-75
2021/01/17 08:06:36;;;;;;;15.77;12.73;;;-0.10;98.00;;;;;;4972034;28;20174;-75
2021/01/17 08:09:19;;;;;;;17.77;13.52;;;-0.10;98.10;;;;;;4971725;28;20209;-75
2021/01/17 08:12:00;;;;;;;17.45;13.93;;;-0.20;98.40;;;;;;4962567;28;20182;-75
2021/01/17 08:14:26;;;;;;;15.85;12.23;;;-0.20;98.80;;;;;;4970701;28;20305;-76
2021/01/17 08:17:19;;;;;;;18.15;13.20;;;-0.20;99.00;;;;;;4953965;29;20265;-75
2021/01/17 08:19:54;;;;;;;18.10;13.68;;;-0.20;99.00;;;;;;4954401;29;20286;-74
2021/01/17 08:22:23;;;;;;;17.13;13.52;;;-0.10;99.30;;;;;;4954062;28;20174;-74
2021/01/17 08:24:53;;;;;;;19.60;17.48;;;-0.10;99.50;;;;;;4959789;28;20944;-74
2021/01/17 08:27:30;;;;;;;21.70;19.43;;;-0.10;99.90;;;;;;4961134;28;20703;-74
2021/01/17 08:30:07;;;;;;;20.48;17.38;;;-0.10;99.90;;;;;;4962242;28;20293;-74
2021/01/17 08:32:37;;;;;;;22.17;18.77;;;0.00;99.80;;;;;;4962912;28;20177;-74
2021/01/17 08:35:21;;;;;;;19.60;15.35;;;0.10;99.80;;;;;;4966153;28;20175;-74
2021/01/17 08:37:53;;;;;;;20.92;16.40;;;0.10;99.90;;;;;;4973010;28;20203;-74
2021/01/17 08:40:38;;;;;;;19.83;15.38;;;0.10;99.90;;;;;;4972646;28;20179;-75
2021/01/17 08:43:07;;;;;;;19.50;15.05;;;0.10;99.90;;;;;;4971444;28;20263;-75
2021/01/17 08:45:50;;;;;;;19.45;14.82;;;0.10;99.80;;;;;;4972985;28;20684;-75
2021/01/17 08:48:15;;;;;;;21.00;15.27;;;0.10;99.70;;;;;;4972722;28;20197;-75
2021/01/17 08:50:41;;;;;;;20.10;16.00;;;0.20;99.80;;;;;;4973234;28;20202;-75
2021/01/17 08:53:25;;;;;;;19.40;15.07;;;0.20;99.90;;;;;;4972286;28;20190;-75
2021/01/17 08:56:19;;;;;;;20.70;16.42;;;0.20;99.90;;;;;;4956433;28;20198;-76
2021/01/17 08:58:46;;;;;;;23.20;16.15;;;0.20;99.90;;;;;;4960205;28;20207;-76
2021/01/17 09:01:14;;;;;;;20.50;16.95;;;0.20;99.90;;;;;;4972071;28;20368;-77
2021/01/17 09:03:42;;;;;;;23.08;17.23;;;0.30;99.90;;;;;;4971971;28;20685;-75
2021/01/17 09:06:08;;;;;;;23.00;16.67;;;0.30;99.90;;;;;;4972824;28;20178;-75
2021/01/17 09:08:34;;;;;;;23.27;17.25;;;0.30;99.90;;;;;;4970636;28;20241;-75
2021/01/17 09:11:02;;;;;;;24.92;17.58;;;0.30;99.90;;;;;;4967637;28;20292;-75
2021/01/17 09:13:29;;;;;;;25.42;18.05;;;0.40;99.90;;;;;;4969972;28;20206;-74
2021/01/17 09:16:06;;;;;;;25.48;18.80;;;0.40;99.90;;;;;;4964780;28;20187;-75
2021/01/17 09:18:38;;;;;;;27.70;19.67;;;0.40;99.90;;;;;;4962169;28;20680;-75
2021/01/17 09:21:07;;;;;;;26.85;19.55;;;0.40;99.90;;;;;;4972047;28;20174;-74
2021/01/17 09:23:40;;;;;;;25.70;18.35;;;0.50;99.90;;;;;;4967228;28;20697;-74
2021/01/17 09:26:07;;;;;;;27.02;18.00;;;0.50;99.80;;;;;;4972826;28;20175;-75
2021/01/17 09:28:33;;;;;;;28.98;19.90;;;0.40;99.90;;;;;;4985690;28;20206;-74
2021/01/17 09:31:01;;;;;;;27.55;20.30;;;0.50;99.90;;;;;;4981669;28;20496;-73
2021/01/17 09:33:28;;;;;;;28.23;18.45;;;0.50;99.90;;;;;;4962265;28;20199;-74
2021/01/17 09:35:54;;;;;;;24.58;18.50;;;0.50;99.90;;;;;;4984982;28;20173;-74
2021/01/17 09:38:22;;;;;;;24.02;18.70;;;0.50;99.90;;;;;;4984955;28;20197;-73
2021/01/17 09:40:50;;;;;;;27.67;19.95;;;0.50;99.90;;;;;;4980874;28;20174;-73
2021/01/17 09:43:17;;;;;;;26.17;19.40;;;0.60;99.90;;;;;;4974679;28;20193;-73
2021/01/17 09:45:53;;;;;;;30.20;20.42;;;0.70;99.90;;;;;;4974659;28;20177;-73
2021/01/17 09:48:21;;;;;;;29.98;20.95;;;0.60;99.50;;;;;;4983568;28;20554;-74
2021/01/17 09:50:47;;;;;;;29.23;20.92;;;0.60;99.60;;;;;;4975286;28;20217;-73
2021/01/17 09:53:13;;;;;;;30.17;21.83;;;0.70;99.90;;;;;;4968443;28;20544;-74
2021/01/17 09:55:43;;;;;;;25.27;19.25;;;0.80;99.50;;;;;;4994977;28;20231;-73
2021/01/17 09:58:11;;;;;;;25.63;19.13;;;0.70;99.30;;;;;;4995453;28;20182;-73
2021/01/17 10:00:38;;;;;;;23.80;17.77;;;0.80;99.10;;;;;;4995127;28;20166;-74
2021/01/17 10:03:12;;;;;;;21.25;16.35;;;0.80;98.70;;;;;;4974513;28;20696;-75
2021/01/17 10:05:39;;;;;;;22.63;16.95;;;0.80;98.60;;;;;;4984374;28;20173;-73
2021/01/17 10:08:06;;;;;;;25.65;19.23;;;0.80;98.80;;;;;;4984947;28;20194;-74
2021/01/17 10:10:34;;;;;;;25.10;19.00;;;0.90;98.40;;;;;;4962313;28;20280;-74
2021/01/17 10:13:00;;;;;;;23.25;17.65;;;0.90;98.20;;;;;;4982668;28;20197;-73
2021/01/17 10:15:26;;;;;;;21.80;16.92;;;0.90;98.20;;;;;;4967413;28;20261;-75
2021/01/17 10:17:53;;;;;;;23.42;17.88;;;0.90;98.10;;;;;;4971266;28;20206;-74
2021/01/17 10:20:28;;;;;;;24.20;18.70;;;0.90;98.00;;;;;;4985646;28;20177;-74
2021/01/17 10:22:59;;;;;;;24.70;18.25;;;0.90;97.90;;;;;;4989950;28;20233;-75
2021/01/17 10:25:26;;;;;;;25.30;18.83;;;0.90;97.90;;;;;;4982969;28;20202;-75
2021/01/17 10:28:04;;;;;;;24.33;19.33;;;0.90;97.90;;;;;;4984889;28;20290;-74
2021/01/17 10:30:36;;;;;;;28.88;20.77;;;0.90;97.80;;;;;;4992712;28;20220;-74
2021/01/17 10:33:06;;;;;;;29.00;20.30;;;0.90;97.60;;;;;;4971687;28;20202;-74
2021/01/17 10:35:34;;;;;;;30.13;21.48;;;1.00;97.70;;;;;;4979527;28;20750;-74
2021/01/17 10:38:04;;;;;;;24.30;19.35;;;1.00;97.60;;;;;;4974435;28;20668;-74
2021/01/17 10:40:31;;;;;;;29.08;20.73;;;1.00;97.20;;;;;;4957323;28;20258;-75
2021/01/17 10:43:01;;;;;;;27.92;21.73;;;1.00;97.30;;;;;;4956943;28;20229;-80
2021/01/17 10:45:28;;;;;;;27.75;21.85;;;1.00;97.30;;;;;;4956924;28;20257;-81
2021/01/17 10:48:14;;;;;;;28.95;22.17;;;1.00;97.40;;;;;;4954926;28;20194;-81
2021/01/17 10:50:46;;;;;;;25.77;19.83;;;1.00;97.40;;;;;;4973701;28;20202;-81
2021/01/17 10:53:19;;;;;;;26.35;19.77;;;1.00;97.30;;;;;;4956972;28;20194;-81
2021/01/17 10:55:50;;;;;;;23.92;19.27;;;1.00;97.30;;;;;;4957452;28;20174;-81
2021/01/17 10:58:22;;;;;;;26.38;17.88;;;1.00;97.60;;;;;;4974610;28;20210;-81
2021/01/17 11:00:52;;;;;;;22.80;17.67;;;1.10;97.50;;;;;;4974737;28;20171;-80
2021/01/17 11:03:34;;;;;;;23.75;18.05;;;1.10;97.40;;;;;;4974578;28;20281;-81
2021/01/17 11:06:18;;;;;;;23.95;18.17;;;1.20;97.30;;;;;;4974690;28;20258;-81
2021/01/17 11:08:55;;;;;;;21.23;16.48;;;1.10;97.00;;;;;;4956694;28;20202;-81
2021/01/17 11:11:23;;;;;;;22.00;17.15;;;1.20;97.00;;;;;;4974638;28;20234;-81
2021/01/17 11:14:04;;;;;;;20.13;15.30;;;1.20;97.20;;;;;;4956998;28;20221;-81
2021/01/17 11:16:44;;;;;;;21.90;16.23;;;1.20;96.40;;;;;;4957108;28;20167;-80
2021/01/17 11:19:14;;;;;;;18.92;14.75;;;1.30;96.30;;;;;;4956961;28;20214;-80
2021/01/17 11:21:41;;;;;;;19.30;14.25;;;1.30;96.40;;;;;;4957023;28;20257;-81
2021/01/17 11:24:09;;;;;;;15.90;13.07;;;1.30;95.80;;;;;;4973980;28;20231;-81
2021/01/17 11:26:36;;;;;;;17.77;13.80;;;1.30;95.50;;;;;;4956933;28;20550;-82
2021/01/17 11:29:04;;;;;;;20.98;15.32;;;1.40;95.60;;;;;;4956581;28;20202;-81
2021/01/17 11:31:30;;;;;;;19.15;15.57;;;1.40;96.10;;;;;;4974196;28;20664;-81
2021/01/17 11:33:56;;;;;;;18.38;14.48;;;1.40;96.50;;;;;;4956597;28;20277;-82
2021/01/17 11:36:26;;;;;;;19.27;14.82;;;1.40;95.70;;;;;;4940934;28;20262;-82
2021/01/17 11:38:57;;;;;;;20.83;15.23;;;1.40;95.00;;;;;;4956270;28;20206;-81
2021/01/17 11:41:35;;;;;;;17.02;13.60;;;1.40;95.50;;;;;;4973803;28;20180;-81
2021/01/17 11:44:13;;;;;;;17.30;13.63;;;1.50;95.90;;;;;;4973965;28;20196;-82
2021/01/17 11:46:40;;;;;;;17.73;14.18;;;1.50;95.30;;;;;;4956555;28;20186;-81
2021/01/17 11:49:06;;;;;;;19.08;14.60;;;1.50;95.30;;;;;;4974003;28;20237;-81
2021/01/17 11:51:33;;;;;;;17.05;13.02;;;1.50;95.10;;;;;;4956291;28;20606;-80
2021/01/17 11:54:10;;;;;;;17.02;13.80;;;1.50;94.90;;;;;;4973330;28;20191;-81
2021/01/17 11:56:36;;;;;;;16.00;12.75;;;1.60;94.50;;;;;;4973485;28;20173;-80
2021/01/17 11:59:03;;;;;;;14.10;11.95;;;1.60;94.60;;;;;;4956384;28;20198;-81
2021/01/17 12:01:29;;;;;;;13.60;10.65;;;1.60;94.50;;;;;;4956091;28;20630;-81
2021/01/17 12:04:21;;;;;;;13.05;11.65;;;1.70;93.60;;;;;;4956107;28;20214;-80
2021/01/17 12:06:47;;;;;;;17.33;13.13;;;1.70;93.10;;;;;;4973625;28;20178;-81
2021/01/17 12:09:18;;;;;;;17.50;12.05;;;1.70;93.50;;;;;;4973270;28;20195;-81
2021/01/17 12:11:48;;;;;;;14.80;11.77;;;1.70;93.20;;;;;;4955831;28;20232;-80
2021/01/17 12:14:18;;;;;;;15.48;12.73;;;1.70;93.40;;;;;;4956122;28;20209;-80
2021/01/17 12:16:53;;;;;;;16.98;13.77;;;1.70;93.20;;;;;;4956092;28;20205;-80
2021/01/17 12:19:20;;;;;;;17.73;12.82;;;1.70;93.40;;;;;;4956036;28;20197;-80
2021/01/17 12:21:49;;;;;;;16.27;12.38;;;1.70;92.50;;;;;;4955873;28;20690;-80
2021/01/17 12:24:16;;;;;;;15.98;12.45;;;1.70;92.30;;;;;;4972780;28;20234;-80
2021/01/17 12:26:43;;;;;;;15.60;11.80;;;1.70;92.60;;;;;;4955839;28;20653;-80
2021/01/17 12:29:10;;;;;;;18.25;13.23;;;1.70;92.50;;;;;;4973257;28;20201;-80
2021/01/17 12:31:37;;;;;;;19.80;12.95;;;1.80;93.10;;;;;;4973153;28;20210;-80
2021/01/17 12:34:03;;;;;;;17.92;13.13;;;1.80;92.50;;;;;;4973227;28;20202;-80
2021/01/17 12:36:31;;;;;;;15.55;12.30;;;1.80;92.80;;;;;;4973121;28;20179;-80
2021/01/17 12:38:58;;;;;;;17.52;12.70;;;1.80;93.40;;;;;;4972776;28;20245;-79
2021/01/17 12:41:29;;;;;;;15.63;12.05;;;1.80;93.70;;;;;;4955707;28;20178;-79
2021/01/17 12:43:56;;;;;;;15.05;12.35;;;1.80;92.30;;;;;;4955774;28;20198;-80
2021/01/17 12:46:23;;;;;;;18.67;12.98;;;1.80;92.50;;;;;;4973116;28;20171;-80
2021/01/17 12:48:49;;;;;;;14.93;11.05;;;1.80;92.30;;;;;;4972992;28;20209;-81
2021/01/17 12:51:16;;;;;;;13.52;10.45;;;1.80;92.00;;;;;;4973067;28;20213;-80
2021/01/17 12:53:43;;;;;;;12.82;10.48;;;1.90;91.80;;;;;;4972416;28;20198;-80
2021/01/17 12:56:10;;;;;;;13.85;10.00;;;1.90;91.50;;;;;;4973036;28;20558;-80
2021/01/17 12:58:37;;;;;;;12.65;10.65;;;1.90;91.20;;;;;;4955375;28;20198;-80
2021/01/17 13:01:04;;;;;;;14.05;11.15;;;1.90;91.40;;;;;;4955448;28;20183;-80
2021/01/17 13:03:31;;;;;;;13.43;9.50;;;1.90;90.50;;;;;;4972722;28;20265;-80
2021/01/17 13:05:57;;;;;;;11.45;9.23;;;1.90;90.30;;;;;;4972881;28;20186;-80
2021/01/17 13:08:23;;;;;;;11.57;8.98;;;1.90;90.70;;;;;;4972353;28;20237;-80
2021/01/17 13:10:50;;;;;;;12.55;9.57;;;1.90;90.50;;;;;;4955338;28;20273;-80
2021/01/17 13:13:16;;;;;;;10.98;8.65;;;2.50;91.00;;;;;;4955641;28;20199;-81
2021/01/17 13:16:07;;;;;;;9.18;8.25;;;1.90;90.50;;;;;;4976761;28;20249;-80
2021/01/17 13:18:33;;;;;;;10.32;8.10;;;1.90;90.40;;;;;;4976472;28;20649;-80
2021/01/17 13:21:00;;;;;;;10.85;8.38;;;1.90;90.30;;;;;;4976526;28;20177;-80
2021/01/17 13:23:27;;;;;;;10.38;8.45;;;1.90;90.30;;;;;;4975935;28;20317;-81
2021/01/17 13:25:53;;;;;;;9.95;8.70;;;1.90;90.20;;;;;;4976438;28;20177;-80
2021/01/17 13:28:19;;;;;;;12.77;8.75;;;1.90;90.00;;;;;;4958775;28;20202;-80
2021/01/17 13:30:47;;;;;;;11.77;9.02;;;1.90;90.10;;;;;;4958926;28;20222;-81
2021/01/17 13:33:13;;;;;;;13.18;10.10;;;1.90;90.30;;;;;;4976256;28;20194;-80
2021/01/17 13:35:48;;;;;;;12.63;9.63;;;1.90;90.40;;;;;;4976390;28;20181;-80
2021/01/17 13:38:14;;;;;;;12.55;9.50;;;1.80;91.10;;;;;;4958620;28;20221;-80
2021/01/17 13:40:42;;;;;;;10.68;8.98;;;1.80;90.90;;;;;;4958596;28;20600;-79
2021/01/17 13:43:11;;;;;;;10.70;9.30;;;1.80;90.80;;;;;;4958775;28;20691;-80
2021/01/17 13:45:37;;;;;;;12.02;9.95;;;1.80;90.80;;;;;;4975951;28;20201;-80
2021/01/17 13:48:04;;;;;;;12.10;10.30;;;1.80;90.40;;;;;;4975957;28;20285;-80
2021/01/17 13:50:30;;;;;;;12.75;10.18;;;1.80;90.80;;;;;;4975692;28;20213;-81
2021/01/17 13:52:56;;;;;;;13.13;9.75;;;1.80;90.90;;;;;;4975593;28;20219;-81
2021/01/17 13:55:22;;;;;;;11.68;10.15;;;1.80;91.60;;;;;;4957903;28;20292;-77
2021/01/17 13:57:48;;;;;;;12.30;10.32;;;1.80;91.90;;;;;;4975747;28;20193;-78
2021/01/17 14:00:22;;;;;;;12.27;9.82;;;1.80;92.00;;;;;;4984104;28;20217;-77
2021/01/17 14:02:49;;;;;;;13.63;9.68;;;1.80;91.30;;;;;;4976661;28;20570;-77
2021/01/17 14:05:15;;;;;;;12.60;9.45;;;1.80;91.10;;;;;;4993935;28;20352;-77
2021/01/17 14:07:46;;;;;;;15.73;11.63;;;1.80;90.40;;;;;;4977553;28;20301;-81
2021/01/17 14:10:12;;;;;;;14.95;11.65;;;1.80;90.50;;;;;;4991409;28;20208;-79
2021/01/17 14:12:45;;;;;;;12.05;9.50;;;1.80;90.50;;;;;;4994891;28;20170;-79
2021/01/17 14:15:13;;;;;;;13.85;10.07;;;1.80;90.20;;;;;;4976940;28;20643;-78
2021/01/17 14:17:39;;;;;;;13.25;9.30;;;1.80;90.30;;;;;;4994916;28;20166;-79
2021/01/17 14:20:06;;;;;;;12.13;9.77;;;1.80;90.10;;;;;;4977045;28;20170;-78
2021/01/17 14:22:32;;;;;;;13.63;9.02;;;1.70;90.50;;;;;;4994215;28;20181;-78
2021/01/17 14:24:58;;;;;;;11.18;9.15;;;2.90;90.80;;;;;;4975713;28;20229;-78
2021/01/17 14:27:23;;;;;;;9.88;8.70;;;1.70;90.60;;;;;;4994409;28;20177;-79
2021/01/17 14:29:49;;;;;;;10.95;9.07;;;1.70;90.40;;;;;;4977009;28;20213;-80
2021/01/17 14:32:15;;;;;;;9.95;8.20;;;1.70;90.50;;;;;;4993928;28;20649;-79
2021/01/17 14:34:41;;;;;;;10.15;8.40;;;1.70;90.40;;;;;;4994728;28;20186;-79
2021/01/17 14:37:09;;;;;;;11.68;9.27;;;1.70;90.60;;;;;;4994342;28;20209;-78
2021/01/17 14:39:35;;;;;;;10.23;7.88;;;1.70;90.60;;;;;;4991037;28;20195;-77
2021/01/17 14:42:01;;;;;;;11.88;8.55;;;1.70;90.60;;;;;;4983926;28;20221;-77
2021/01/17 14:44:28;;;;;;;11.68;9.30;;;1.70;90.20;;;;;;4992141;28;20248;-80
2021/01/17 14:46:55;;;;;;;12.23;9.43;;;1.70;90.60;;;;;;4994167;28;20659;-80
2021/01/17 14:49:23;;;;;;;10.57;9.45;;;1.70;90.70;;;;;;4991676;28;20541;-78
2021/01/17 14:51:49;;;;;;;11.02;9.57;;;1.70;90.70;;;;;;4976251;28;20296;-78
2021/01/17 14:54:16;;;;;;;10.77;8.90;;;1.80;90.50;;;;;;4993846;28;20664;-76
2021/01/17 14:56:47;;;;;;;11.85;10.15;;;1.70;90.30;;;;;;4994505;28;20209;-79
2021/01/17 14:59:16;;;;;;;12.82;10.25;;;1.80;90.60;;;;;;4976222;28;20202;-79
2021/01/17 15:01:42;;;;;;;12.38;9.45;;;1.80;91.00;;;;;;4994233;28;20178;-71
2021/01/17 15:04:09;;;;;;;11.05;8.98;;;1.70;90.50;;;;;;4994098;28;20244;-71
2021/01/17 15:06:35;;;;;;;10.88;9.02;;;1.70;90.40;;;;;;4993809;28;20170;-72
2021/01/17 15:09:01;;;;;;;10.98;9.25;;;1.80;90.60;;;;;;4975858;28;20694;-72
2021/01/17 15:11:27;;;;;;;14.27;8.98;;;1.70;90.50;;;;;;4990391;28;20252;-72
2021/01/17 15:13:55;;;;;;;10.75;8.60;;;1.70;90.60;;;;;;4966311;28;20564;-73
2021/01/17 15:16:23;;;;;;;11.60;8.48;;;1.70;90.40;;;;;;4984612;28;20170;-75
2021/01/17 15:18:54;;;;;;;9.48;8.38;;;1.70;90.40;;;;;;4969858;28;20197;-75
2021/01/17 15:21:21;;;;;;;9.80;8.60;;;1.60;90.30;;;;;;4964745;28;20711;-76
2021/01/17 15:23:47;;;;;;;13.13;9.20;;;1.60;90.50;;;;;;4964076;28;20226;-76
2021/01/17 15:26:15;;;;;;;11.43;9.48;;;1.60;90.10;;;;;;4965314;28;20288;-75
2021/01/17 15:28:42;;;;;;;11.57;9.27;;;1.60;90.20;;;;;;4982355;28;20241;-75
2021/01/17 15:31:08;;;;;;;13.25;10.52;;;1.60;90.60;;;;;;4966950;28;20281;-75
2021/01/17 15:33:34;;;;;;;13.32;11.10;;;1.50;90.60;;;;;;4983335;28;20199;-75
2021/01/17 15:36:05;;;;;;;16.50;13.10;;;1.50;90.80;;;;;;4964970;28;20169;-73
2021/01/17 15:39:01;;;;;;;16.40;12.82;;;1.50;91.10;;;;;;4965174;28;20201;-75
2021/01/17 15:41:30;;;;;;;18.25;12.40;;;1.60;91.40;;;;;;4897884;29;20240;-74
2021/01/17 15:43:57;;;;;;;16.40;13.18;;;1.60;91.50;;;;;;4913511;29;20200;-74
2021/01/17 15:46:23;;;;;;;19.02;12.77;;;1.60;91.40;;;;;;4913522;29;20196;-75
2021/01/17 15:48:49;;;;;;;17.90;13.50;;;1.50;91.60;;;;;;4911815;29;20204;-72
2021/01/17 15:51:16;;;;;;;17.10;13.85;;;1.50;92.00;;;;;;4913438;29;20243;-73
2021/01/17 15:53:43;;;;;;;22.38;16.30;;;1.50;92.30;;;;;;4897462;29;20227;-72
2021/01/17 15:56:09;;;;;;;11.63;9.20;;;1.50;92.70;;;;;;4897489;29;20957;-73
2021/01/17 15:58:35;;;;;;;9.10;8.00;;;1.50;91.40;;;;;;4913801;29;20304;-72
2021/01/17 16:01:01;;;;;;;10.52;8.13;;;1.50;90.30;;;;;;4929068;29;20185;-73
2021/01/17 16:03:27;;;;;;;17.77;13.80;;;1.40;90.50;;;;;;4913855;29;20204;-74
2021/01/17 16:05:59;;;;;;;11.98;9.48;;;1.40;91.30;;;;;;4912997;29;20195;-73
2021/01/17 16:08:25;;;;;;;11.30;8.32;;;1.40;89.70;;;;;;4913280;29;20217;-73
2021/01/17 16:10:51;;;;;;;10.07;6.65;;;1.40;90.00;;;;;;4913339;29;20303;-72
2021/01/17 16:13:18;;;;;;;8.02;6.65;;;1.10;89.50;;;;;;4913357;29;20239;-74
2021/01/17 16:15:44;;;;;;;8.93;7.28;;;1.30;90.00;;;;;;4899008;29;20450;-75
2021/01/17 16:18:11;;;;;;;8.45;7.20;;;1.40;90.20;;;;;;4950923;28;20206;-76
2021/01/17 16:20:36;;;;;;;8.05;7.22;;;1.20;90.20;;;;;;4955958;28;20262;-77
2021/01/17 16:23:02;;;;;;;8.48;7.32;;;1.20;90.10;;;;;;4955243;28;20322;-77
2021/01/17 16:25:28;;;;;;;8.00;6.72;;;1.20;90.50;;;;;;4955577;28;20178;-75
2021/01/17 16:27:53;;;;;;;9.98;6.63;;;1.20;90.50;;;;;;4973067;28;20195;-76
2021/01/17 16:30:21;;;;;;;9.38;6.85;;;1.10;90.00;;;;;;4955758;28;20214;-76
2021/01/17 16:32:47;;;;;;;8.98;7.05;;;1.20;90.10;;;;;;4973115;28;20170;-77
2021/01/17 16:35:14;;;;;;;7.97;6.50;;;1.10;89.80;;;;;;4955559;28;20244;-82
2021/01/17 16:37:41;;;;;;;7.60;5.97;;;1.10;88.90;;;;;;4956240;28;20464;-76
2021/01/17 16:40:08;;;;;;;8.02;6.32;;;1.10;88.90;;;;;;4972564;28;20221;-76
2021/01/17 16:42:34;;;;;;;8.30;5.78;;;0.90;88.40;;;;;;4972734;28;20198;-74
2021/01/17 16:45:00;;;;;;;8.23;6.00;;;1.00;89.30;;;;;;4972984;28;20307;-73
2021/01/17 16:47:26;;;;;;;7.45;6.50;;;1.00;88.70;;;;;;4955419;28;20649;-72
2021/01/17 16:49:52;;;;;;;6.43;5.65;;;1.00;89.30;;;;;;4954826;28;20198;-76
2021/01/17 16:52:18;;;;;;;7.93;5.63;;;1.30;90.10;;;;;;4972888;28;20178;-73
2021/01/17 16:54:44;;;;;;;8.10;6.55;;;0.80;90.20;;;;;;4955016;28;20194;-75
2021/01/17 16:57:11;;;;;;;8.57;7.55;;;1.00;90.00;;;;;;4971779;28;20507;-73
2021/01/17 16:59:36;;;;;;;8.38;7.50;;;1.00;90.00;;;;;;4974760;28;20422;-80
2021/01/17 17:02:02;;;;;;;10.38;6.72;;;1.10;89.70;;;;;;4974709;28;20198;-75
2021/01/17 17:04:29;;;;;;;8.15;6.32;;;1.30;90.90;;;;;;4974111;28;20413;-78
2021/01/17 17:06:56;;;;;;;9.10;6.07;;;1.20;90.50;;;;;;4992591;28;20174;-76
2021/01/17 17:09:22;;;;;;;6.88;6.18;;;0.80;90.20;;;;;;4991706;28;20190;-77
2021/01/17 17:11:47;;;;;;;8.48;6.90;;;1.00;89.80;;;;;;4973921;28;20463;-78
2021/01/17 17:14:13;;;;;;;9.85;6.32;;;1.20;92.90;;;;;;4974764;28;20660;-78
2021/01/17 17:16:39;;;;;;;8.15;6.10;;;1.00;89.20;;;;;;4992151;28;20191;-79
2021/01/17 17:19:05;;;;;;;7.55;5.97;;;0.80;89.50;;;;;;4974296;28;20198;-77
2021/01/17 17:21:34;;;;;;;6.03;5.40;;;1.00;89.30;;;;;;4992120;28;20178;-78
2021/01/17 17:24:02;;;;;;;10.32;7.10;;;0.90;89.40;;;;;;4991305;28;20300;-79
2021/01/17 17:26:30;;;;;;;8.20;6.38;;;0.90;90.10;;;;;;4988452;28;20261;-78
2021/01/17 17:28:57;;;;;;;8.68;6.07;;;0.90;90.00;;;;;;4971614;28;20209;-75
2021/01/17 17:31:24;;;;;;;7.30;6.03;;;0.90;89.90;;;;;;4986156;28;20304;-77
2021/01/17 17:33:50;;;;;;;7.35;6.15;;;0.90;90.80;;;;;;4972039;28;20490;-75
2021/01/17 17:36:17;;;;;;;8.43;6.65;;;0.90;90.50;;;;;;4988296;28;20182;-75
2021/01/17 17:38:44;;;;;;;9.15;6.30;;;1.00;89.70;;;;;;4973412;28;20293;-74
2021/01/17 17:41:16;;;;;;;8.05;6.88;;;1.00;89.90;;;;;;4990908;28;20408;-75
2021/01/17 17:43:43;;;;;;;8.05;6.25;;;0.90;90.20;;;;;;4974275;28;20205;-76
2021/01/17 17:46:09;;;;;;;9.57;6.68;;;1.00;90.10;;;;;;4991785;28;20166;-73
2021/01/17 17:48:35;;;;;;;5.80;5.18;;;0.90;90.20;;;;;;4974221;28;20636;-71
2021/01/17 17:51:00;;;;;;;7.32;6.18;;;0.90;90.40;;;;;;4983680;28;20305;-76
2021/01/17 17:53:27;;;;;;;8.35;5.57;;;0.90;90.20;;;;;;4969472;28;20304;-77
2021/01/17 17:55:52;;;;;;;7.85;6.28;;;0.70;90.50;;;;;;4954545;28;20186;-71
2021/01/17 17:58:18;;;;;;;8.75;6.20;;;2.00;90.60;;;;;;4968279;28;20618;-71
2021/01/17 18:00:52;;;;;;;8.32;6.80;;;1.30;90.90;;;;;;4974144;28;20171;-68
2021/01/17 18:03:18;;;;;;;7.40;6.00;;;0.90;90.40;;;;;;4975625;28;20515;-72
2021/01/17 18:05:44;;;;;;;8.93;6.72;;;0.80;90.40;;;;;;4961491;28;20196;-72
2021/01/17 18:08:10;;;;;;;8.00;6.13;;;0.90;91.20;;;;;;4994423;28;20199;-72
2021/01/17 18:10:36;;;;;;;9.30;6.53;;;0.80;90.60;;;;;;4994370;28;20209;-71
2021/01/17 18:13:02;;;;;;;8.48;6.60;;;0.80;90.80;;;;;;4976569;28;20194;-68
2021/01/17 18:15:28;;;;;;;11.90;7.75;;;0.80;90.70;;;;;;4985868;28;20222;-69